Time;durP1;ratioP1;P1;durP2;ratioP2;P2;SDS_P1;SDS_P2;PMS_P1;PMS_P2;Temp;Humidity;BMP_temperature;BMP_pressure;BME280_temperature;BME280_humidity;BME280_pressure;Samples;Min_cycle;Max_cycle;Signal;HPM_P1;HPM_P2
2023/06/20 00:02:00;;;;;;;14.70;13.30;;;;;;;;;;5003873;28;20664;-85
2023/06/20 00:04:27;;;;;;;15.50;14.00;;;;;;;;;;5003840;28;20418;-84
2023/06/20 00:06:55;;;;;;;15.03;13.53;;;;;;;;;;5002997;28;20457;-84
2023/06/20 00:09:22;;;;;;;15.63;14.27;;;;;;;;;;5004183;28;20439;-84
2023/06/20 00:11:52;;;;;;;14.50;13.20;;;;;;;;;;5003989;28;20726;-84
2023/06/20 00:14:21;;;;;;;14.80;13.50;;;;;;;;;;5009444;28;20409;-81
2023/06/20 00:16:50;;;;;;;15.13;13.80;;;;;;;;;;5013619;28;20414;-84
2023/06/20 00:19:17;;;;;;;13.73;12.53;;;;;;;;;;5011675;28;20439;-84
2023/06/20 00:21:45;;;;;;;14.20;12.70;;;;;;;;;;5003667;28;20440;-83
2023/06/20 00:24:13;;;;;;;14.77;13.07;;;;;;;;;;5003070;28;20422;-84
2023/06/20 00:26:40;;;;;;;15.07;13.20;;;;;;;;;;5002860;28;20516;-83
2023/06/20 00:29:07;;;;;;;14.13;12.43;;;;;;;;;;5002368;28;20471;-82
2023/06/20 00:31:36;;;;;;;14.33;13.10;;;;;;;;;;5001713;28;20447;-82
2023/06/20 00:34:04;;;;;;;14.57;13.17;;;;;;;;;;4984467;28;20438;-83
2023/06/20 00:36:31;;;;;;;15.80;14.30;;;;;;;;;;5003583;28;20506;-84
2023/06/20 00:38:59;;;;;;;15.83;13.80;;;;;;;;;;5016640;28;20469;-82
2023/06/20 00:41:26;;;;;;;17.37;14.13;;;;;;;;;;5012608;28;20758;-83
2023/06/20 00:43:53;;;;;;;15.97;13.17;;;;;;;;;;5002635;28;20455;-85
2023/06/20 00:46:25;;;;;;;15.50;14.20;;;;;;;;;;5002142;28;20576;-83
2023/06/20 00:48:53;;;;;;;16.10;14.47;;;;;;;;;;5002643;28;20826;-82
2023/06/20 00:51:22;;;;;;;19.30;14.70;;;;;;;;;;5002701;28;20594;-82
2023/06/20 00:53:50;;;;;;;15.00;13.50;;;;;;;;;;4979374;28;20422;-83
2023/06/20 00:56:18;;;;;;;16.17;14.67;;;;;;;;;;5002474;28;20517;-82
2023/06/20 00:58:45;;;;;;;15.07;13.67;;;;;;;;;;5000623;28;20494;-84
2023/06/20 01:01:16;;;;;;;15.37;13.87;;;;;;;;;;5001969;28;20500;-83
2023/06/20 01:03:44;;;;;;;16.10;14.60;;;;;;;;;;5001777;28;20429;-84
2023/06/20 01:06:32;;;;;;;15.73;14.30;;;;;;;;;;5002196;28;20451;-84
2023/06/20 01:09:13;;;;;;;16.87;15.10;;;;;;;;;;5000357;28;20435;-85
2023/06/20 01:12:00;;;;;;;18.10;16.30;;;;;;;;;;5000070;28;20511;-82
2023/06/20 01:14:35;;;;;;;17.17;15.53;;;;;;;;;;4997934;28;20413;-82
2023/06/20 01:17:08;;;;;;;18.57;16.93;;;;;;;;;;4998569;28;20410;-85
2023/06/20 01:19:49;;;;;;;17.20;14.20;;;;;;;;;;4998729;28;20410;-85
2023/06/20 01:22:28;;;;;;;17.57;15.97;;;;;;;;;;4999884;28;20451;-84
2023/06/20 01:24:58;;;;;;;16.87;15.37;;;;;;;;;;4992975;28;20418;-86
2023/06/20 01:27:33;;;;;;;17.67;15.77;;;;;;;;;;5000578;28;20491;-83
2023/06/20 01:30:03;;;;;;;18.37;16.57;;;;;;;;;;5000621;28;20822;-84
2023/06/20 01:32:33;;;;;;;18.63;14.83;;;;;;;;;;4983978;28;20413;-84
2023/06/20 01:35:09;;;;;;;16.80;15.20;;;;;;;;;;4984121;28;20454;-82
2023/06/20 01:37:39;;;;;;;17.70;15.80;;;;;;;;;;5001928;28;20466;-85
2023/06/20 01:40:08;;;;;;;16.73;15.03;;;;;;;;;;5006316;28;20434;-85
2023/06/20 01:42:36;;;;;;;16.83;15.20;;;;;;;;;;5003829;28;20677;-83
2023/06/20 01:45:06;;;;;;;18.30;16.40;;;;;;;;;;4997716;28;20422;-85
2023/06/20 01:47:35;;;;;;;17.37;15.83;;;;;;;;;;5002338;28;20708;-84
2023/06/20 01:50:04;;;;;;;16.97;15.37;;;;;;;;;;5003316;28;20419;-84
2023/06/20 01:52:31;;;;;;;17.77;15.97;;;;;;;;;;5003300;28;20707;-84
2023/06/20 01:55:00;;;;;;;23.93;15.20;;;;;;;;;;5003721;28;20417;-85
2023/06/20 01:57:28;;;;;;;17.87;16.20;;;;;;;;;;5003396;28;20447;-84
2023/06/20 01:59:56;;;;;;;18.33;16.73;;;;;;;;;;5003462;28;20502;-84
2023/06/20 02:02:25;;;;;;;18.07;16.47;;;;;;;;;;5003940;28;20624;-83
2023/06/20 02:04:56;;;;;;;18.10;16.50;;;;;;;;;;5004483;28;20900;-85
2023/06/20 02:07:24;;;;;;;20.17;17.00;;;;;;;;;;5004078;28;20446;-84
2023/06/20 02:09:51;;;;;;;15.97;14.47;;;;;;;;;;5003690;28;20417;-86
2023/06/20 02:12:19;;;;;;;17.80;16.00;;;;;;;;;;5002727;28;20451;-85
2023/06/20 02:14:47;;;;;;;18.00;16.27;;;;;;;;;;4984775;28;20418;-83
2023/06/20 02:17:16;;;;;;;18.07;16.27;;;;;;;;;;5001579;28;20426;-83
2023/06/20 02:19:43;;;;;;;16.50;14.90;;;;;;;;;;5001914;28;20414;-84
2023/06/20 02:22:12;;;;;;;18.60;16.93;;;;;;;;;;5001634;28;20422;-83
2023/06/20 02:24:40;;;;;;;17.30;15.40;;;;;;;;;;5000914;28;20454;-83
2023/06/20 02:27:08;;;;;;;18.83;17.03;;;;;;;;;;5001287;28;20514;-82
2023/06/20 02:29:38;;;;;;;19.10;17.17;;;;;;;;;;4983772;28;20506;-84
2023/06/20 02:32:06;;;;;;;19.13;15.83;;;;;;;;;;5000631;28;20622;-83
2023/06/20 02:34:34;;;;;;;22.50;17.67;;;;;;;;;;5000595;28;20421;-83
2023/06/20 02:37:05;;;;;;;16.77;15.17;;;;;;;;;;5001123;28;20455;-84
2023/06/20 02:39:32;;;;;;;17.83;16.13;;;;;;;;;;5001458;28;20437;-85
2023/06/20 02:41:59;;;;;;;18.33;16.53;;;;;;;;;;4999495;28;20474;-84
2023/06/20 02:44:27;;;;;;;18.67;16.97;;;;;;;;;;4999230;28;20591;-84
2023/06/20 02:47:06;;;;;;;20.63;18.43;;;;;;;;;;5000527;28;20440;-83
2023/06/20 02:49:44;;;;;;;18.83;16.93;;;;;;;;;;4999587;28;20417;-84
2023/06/20 02:52:22;;;;;;;19.00;17.10;;;;;;;;;;4999485;28;20496;-85
2023/06/20 02:55:04;;;;;;;18.17;16.57;;;;;;;;;;4999973;28;20486;-85
2023/06/20 02:57:32;;;;;;;19.53;17.30;;;;;;;;;;5000899;28;20416;-82
2023/06/20 03:00:05;;;;;;;18.83;17.10;;;;;;;;;;5006393;28;20834;-83
2023/06/20 03:02:33;;;;;;;20.30;18.10;;;;;;;;;;5003257;28;20819;-83
2023/06/20 03:05:04;;;;;;;19.27;17.30;;;;;;;;;;5000267;28;20425;-81
2023/06/20 03:07:33;;;;;;;19.73;15.47;;;;;;;;;;5001755;28;20505;-83
2023/06/20 03:10:03;;;;;;;22.13;20.10;;;;;;;;;;5003727;28;20414;-82
2023/06/20 03:12:31;;;;;;;21.50;18.00;;;;;;;;;;4985592;28;20426;-83
2023/06/20 03:14:59;;;;;;;19.27;17.37;;;;;;;;;;5006776;28;20426;-82
2023/06/20 03:17:26;;;;;;;18.80;17.10;;;;;;;;;;5003889;28;20440;-83
2023/06/20 03:19:54;;;;;;;20.03;18.13;;;;;;;;;;5000086;28;20425;-82
2023/06/20 03:22:21;;;;;;;20.13;18.03;;;;;;;;;;4998600;28;20768;-81
2023/06/20 03:24:49;;;;;;;21.00;19.00;;;;;;;;;;4998004;28;20418;-83
2023/06/20 03:27:16;;;;;;;20.70;18.70;;;;;;;;;;4997733;28;20426;-83
2023/06/20 03:29:44;;;;;;;20.93;19.07;;;;;;;;;;4998964;28;20422;-84
2023/06/20 03:32:11;;;;;;;20.90;18.90;;;;;;;;;;5000571;28;20754;-83
2023/06/20 03:34:38;;;;;;;20.40;18.17;;;;;;;;;;4999173;28;20421;-83
2023/06/20 03:37:06;;;;;;;19.87;17.80;;;;;;;;;;4997560;28;20787;-83
2023/06/20 03:39:33;;;;;;;20.93;18.67;;;;;;;;;;4998919;28;20821;-83
2023/06/20 03:42:00;;;;;;;19.43;17.37;;;;;;;;;;4999396;28;20418;-84
2023/06/20 03:44:36;;;;;;;22.30;19.53;;;;;;;;;;4999806;28;20426;-82
2023/06/20 03:47:04;;;;;;;20.67;17.27;;;;;;;;;;4984102;28;20470;-84
2023/06/20 03:49:32;;;;;;;21.70;16.77;;;;;;;;;;5009618;28;20544;-85
2023/06/20 03:52:00;;;;;;;21.13;18.20;;;;;;;;;;5011106;28;20427;-84
2023/06/20 03:54:29;;;;;;;19.87;17.80;;;;;;;;;;4990786;28;20419;-85
2023/06/20 03:56:56;;;;;;;20.10;17.67;;;;;;;;;;4983392;28;20742;-85
2023/06/20 03:59:23;;;;;;;19.40;16.60;;;;;;;;;;5000317;28;20447;-84
2023/06/20 04:01:52;;;;;;;19.87;17.80;;;;;;;;;;4999454;28;20413;-84
2023/06/20 04:04:22;;;;;;;22.10;17.97;;;;;;;;;;5000044;28;20458;-85
2023/06/20 04:06:50;;;;;;;20.40;18.20;;;;;;;;;;4984743;28;21621;-84
2023/06/20 04:09:18;;;;;;;23.17;19.07;;;;;;;;;;5008422;28;20485;-86
2023/06/20 04:11:47;;;;;;;21.83;19.37;;;;;;;;;;5013651;28;20499;-84
2023/06/20 04:14:17;;;;;;;20.60;18.50;;;;;;;;;;4997744;28;20466;-84
2023/06/20 04:16:47;;;;;;;19.80;17.83;;;;;;;;;;4993395;28;20417;-86
2023/06/20 04:19:15;;;;;;;18.80;17.17;;;;;;;;;;5002892;28;20442;-84
2023/06/20 04:21:43;;;;;;;18.73;17.00;;;;;;;;;;5001590;28;20442;-85
2023/06/20 04:24:10;;;;;;;19.00;17.30;;;;;;;;;;5004716;28;20454;-86
2023/06/20 04:26:37;;;;;;;19.80;17.80;;;;;;;;;;5002176;28;20418;-85
2023/06/20 04:29:05;;;;;;;21.07;18.97;;;;;;;;;;4985907;28;20532;-84
2023/06/20 04:31:33;;;;;;;22.77;19.03;;;;;;;;;;5001532;28;20783;-84
2023/06/20 04:34:00;;;;;;;19.70;17.60;;;;;;;;;;5002839;28;20453;-86
2023/06/20 04:36:28;;;;;;;19.37;17.37;;;;;;;;;;5003531;28;20529;-83
2023/06/20 04:38:56;;;;;;;19.80;17.80;;;;;;;;;;5002681;28;20447;-85
2023/06/20 04:41:24;;;;;;;20.63;18.73;;;;;;;;;;5002175;28;20450;-78
2023/06/20 04:43:51;;;;;;;20.80;18.80;;;;;;;;;;5001968;28;20422;-83
2023/06/20 04:46:18;;;;;;;18.10;15.97;;;;;;;;;;5001917;28;20600;-83
2023/06/20 04:48:46;;;;;;;20.50;18.50;;;;;;;;;;5001755;28;20598;-84
2023/06/20 04:51:16;;;;;;;20.43;18.43;;;;;;;;;;4984430;28;20433;-84
2023/06/20 04:53:43;;;;;;;17.50;15.97;;;;;;;;;;4984628;28;20484;-84
2023/06/20 04:56:15;;;;;;;18.40;16.60;;;;;;;;;;5002466;28;20440;-85
2023/06/20 04:58:45;;;;;;;21.73;17.07;;;;;;;;;;4982062;28;20421;-83
2023/06/20 05:01:16;;;;;;;17.70;16.00;;;;;;;;;;5003562;28;20486;-83
2023/06/20 05:03:43;;;;;;;20.80;18.80;;;;;;;;;;5004895;28;20435;-86
2023/06/20 05:06:17;;;;;;;19.70;16.00;;;;;;;;;;5003219;28;20467;-86
2023/06/20 05:08:52;;;;;;;18.03;16.30;;;;;;;;;;5001420;28;20481;-84
2023/06/20 05:11:24;;;;;;;18.30;16.70;;;;;;;;;;5001770;28;20417;-84
2023/06/20 05:13:53;;;;;;;18.47;16.77;;;;;;;;;;5001624;28;20510;-85
2023/06/20 05:16:32;;;;;;;18.60;16.90;;;;;;;;;;5180398;22;20477;-82
2023/06/20 05:19:01;;;;;;;17.67;16.00;;;;;;;;;;5018053;28;20433;-87
2023/06/20 05:21:30;;;;;;;17.47;15.97;;;;;;;;;;5016729;28;20458;-81
2023/06/20 05:23:58;;;;;;;17.87;16.00;;;;;;;;;;5012769;28;20495;-86
2023/06/20 05:26:26;;;;;;;17.93;16.30;;;;;;;;;;5021284;28;21020;-86
2023/06/20 05:28:56;;;;;;;19.37;17.60;;;;;;;;;;4999698;28;21906;-87
2023/06/20 05:31:24;;;;;;;18.30;15.90;;;;;;;;;;5009740;28;20454;-83
2023/06/20 05:33:54;;;;;;;17.77;16.07;;;;;;;;;;5016429;28;20458;-85
2023/06/20 05:36:22;;;;;;;18.20;16.50;;;;;;;;;;5001386;28;20453;-85
2023/06/20 05:38:52;;;;;;;19.17;17.20;;;;;;;;;;5020636;28;20501;-81
2023/06/20 05:41:19;;;;;;;17.40;15.70;;;;;;;;;;5018906;28;20452;-81
2023/06/20 05:43:47;;;;;;;16.63;14.63;;;;;;;;;;5011050;28;20447;-80
2023/06/20 05:46:14;;;;;;;18.33;16.83;;;;;;;;;;5017391;28;20546;-82
2023/06/20 05:48:43;;;;;;;18.00;16.07;;;;;;;;;;5010284;28;20457;-82
2023/06/20 05:51:18;;;;;;;15.77;14.37;;;;;;;;;;5012068;28;20448;-84
2023/06/20 05:53:47;;;;;;;20.97;16.40;;;;;;;;;;5018950;28;20435;-84
2023/06/20 05:56:15;;;;;;;17.80;16.10;;;;;;;;;;5009949;28;20411;-84
2023/06/20 05:58:49;;;;;;;16.87;15.20;;;;;;;;;;5017411;28;20506;-85
2023/06/20 06:01:16;;;;;;;17.50;16.00;;;;;;;;;;5020233;28;20439;-83
2023/06/20 06:03:47;;;;;;;17.40;15.73;;;;;;;;;;5006270;28;20678;-84
2023/06/20 06:06:15;;;;;;;17.87;16.37;;;;;;;;;;5015522;28;20725;-83
2023/06/20 06:08:44;;;;;;;17.20;15.20;;;;;;;;;;4998997;28;20475;-80
2023/06/20 06:11:11;;;;;;;17.30;15.60;;;;;;;;;;5012361;28;20532;-80
2023/06/20 06:13:40;;;;;;;16.87;15.07;;;;;;;;;;4997514;28;20541;-84
2023/06/20 06:16:08;;;;;;;16.40;14.97;;;;;;;;;;5009589;28;20467;-80
2023/06/20 06:18:37;;;;;;;15.93;14.57;;;;;;;;;;5013547;28;20535;-87
2023/06/20 06:21:07;;;;;;;15.87;14.47;;;;;;;;;;5003599;28;20439;-88
2023/06/20 06:23:34;;;;;;;15.43;13.00;;;;;;;;;;4993057;28;20451;-82
2023/06/20 06:26:02;;;;;;;16.83;14.20;;;;;;;;;;5008399;28;20443;-83
2023/06/20 06:28:30;;;;;;;15.97;14.47;;;;;;;;;;5009417;28;20480;-81
2023/06/20 06:30:59;;;;;;;14.10;12.90;;;;;;;;;;5012288;28;20449;-83
2023/06/20 06:33:30;;;;;;;17.33;14.50;;;;;;;;;;5016117;28;20473;-81
2023/06/20 06:35:57;;;;;;;14.83;13.57;;;;;;;;;;5013718;28;20446;-82
2023/06/20 06:38:26;;;;;;;15.37;13.80;;;;;;;;;;5016549;28;20510;-80
2023/06/20 06:40:54;;;;;;;14.83;13.43;;;;;;;;;;5002943;28;20458;-82
2023/06/20 06:43:22;;;;;;;15.20;13.60;;;;;;;;;;5010276;28;20443;-85
2023/06/20 06:45:53;;;;;;;15.07;13.67;;;;;;;;;;5010378;28;20671;-83
2023/06/20 06:48:21;;;;;;;17.27;14.73;;;;;;;;;;5014837;28;20487;-84
2023/06/20 06:50:48;;;;;;;15.03;13.73;;;;;;;;;;4996140;28;20443;-83
2023/06/20 06:53:15;;;;;;;16.17;14.77;;;;;;;;;;5013383;28;20666;-84
2023/06/20 06:55:46;;;;;;;17.17;13.83;;;;;;;;;;5020800;28;20460;-84
2023/06/20 06:58:14;;;;;;;18.03;13.73;;;;;;;;;;5017492;28;20477;-85
2023/06/20 07:00:42;;;;;;;14.13;12.07;;;;;;;;;;5022428;28;20453;-85
2023/06/20 07:03:11;;;;;;;14.97;13.43;;;;;;;;;;5025209;28;20492;-84
2023/06/20 07:05:42;;;;;;;17.00;11.37;;;;;;;;;;5023583;28;20435;-86
2023/06/20 07:08:09;;;;;;;13.57;12.57;;;;;;;;;;5017803;28;20652;-85
2023/06/20 07:10:36;;;;;;;14.50;13.20;;;;;;;;;;5016613;28;20892;-85
2023/06/20 07:13:06;;;;;;;15.63;12.60;;;;;;;;;;4998200;28;20447;-85
2023/06/20 07:15:33;;;;;;;18.03;14.57;;;;;;;;;;4999605;28;20485;-83
2023/06/20 07:18:01;;;;;;;16.17;14.60;;;;;;;;;;5021200;28;20451;-85
2023/06/20 07:20:28;;;;;;;13.17;12.20;;;;;;;;;;5010345;28;20680;-84
2023/06/20 07:22:56;;;;;;;13.57;12.20;;;;;;;;;;5019935;28;20446;-87
2023/06/20 07:25:23;;;;;;;13.27;12.17;;;;;;;;;;5013416;28;20455;-84
2023/06/20 07:27:51;;;;;;;13.90;12.90;;;;;;;;;;5018642;28;20534;-88
2023/06/20 07:30:19;;;;;;;14.00;12.80;;;;;;;;;;5002894;28;20480;-86
2023/06/20 07:32:48;;;;;;;13.07;12.17;;;;;;;;;;5017054;28;20471;-84
2023/06/20 07:35:16;;;;;;;14.60;13.23;;;;;;;;;;5017932;28;20522;-85
2023/06/20 07:37:43;;;;;;;12.17;10.97;;;;;;;;;;5096650;22;20508;-84
2023/06/20 07:40:11;;;;;;;13.77;12.47;;;;;;;;;;4994358;28;20747;-85
2023/06/20 07:42:39;;;;;;;12.20;11.40;;;;;;;;;;4996425;28;20451;-83
2023/06/20 07:45:06;;;;;;;12.57;11.33;;;;;;;;;;4989780;28;20448;-84
2023/06/20 07:47:35;;;;;;;12.93;12.03;;;;;;;;;;4988739;28;20448;-84
2023/06/20 07:50:03;;;;;;;13.03;11.83;;;;;;;;;;4988000;28;20455;-87
2023/06/20 07:52:32;;;;;;;13.67;12.50;;;;;;;;;;4999341;28;20439;-84
2023/06/20 07:55:01;;;;;;;13.03;11.70;;;;;;;;;;4983004;28;20443;-83
2023/06/20 07:57:34;;;;;;;12.93;12.00;;;;;;;;;;4979815;28;21063;-84
2023/06/20 08:00:01;;;;;;;13.10;11.90;;;;;;;;;;4992208;28;20487;-83
2023/06/20 08:02:31;;;;;;;13.20;12.30;;;;;;;;;;4999868;28;20443;-87
2023/06/20 08:04:59;;;;;;;12.37;11.40;;;;;;;;;;4996814;28;20479;-87
2023/06/20 08:07:28;;;;;;;12.60;11.67;;;;;;;;;;4987560;28;20472;-85
2023/06/20 08:09:56;;;;;;;12.53;11.70;;;;;;;;;;5002761;28;20450;-82
2023/06/20 08:12:26;;;;;;;13.43;12.27;;;;;;;;;;5004165;28;20447;-87
2023/06/20 08:14:53;;;;;;;12.60;11.57;;;;;;;;;;4977960;28;20515;-89
2023/06/20 08:17:21;;;;;;;12.13;11.33;;;;;;;;;;4985843;28;20487;-87
2023/06/20 08:19:48;;;;;;;11.70;10.90;;;;;;;;;;4998040;28;20530;-84
2023/06/20 08:22:16;;;;;;;13.73;12.53;;;;;;;;;;4995867;28;20447;-85
2023/06/20 08:24:43;;;;;;;11.60;11.00;;;;;;;;;;4990205;28;20444;-85
2023/06/20 08:27:10;;;;;;;13.77;12.70;;;;;;;;;;4999095;28;20541;-84
2023/06/20 08:29:38;;;;;;;11.17;10.50;;;;;;;;;;5004594;28;20456;-85
2023/06/20 08:32:07;;;;;;;12.17;11.07;;;;;;;;;;4976732;28;20454;-81
2023/06/20 08:34:35;;;;;;;11.33;10.63;;;;;;;;;;4990268;28;20453;-88
2023/06/20 08:37:03;;;;;;;12.90;12.10;;;;;;;;;;4980295;28;20456;-82
2023/06/20 08:39:30;;;;;;;12.30;11.40;;;;;;;;;;4987735;28;20491;-85
2023/06/20 08:41:58;;;;;;;12.23;11.23;;;;;;;;;;4991220;28;20451;-85
2023/06/20 08:44:25;;;;;;;11.23;10.53;;;;;;;;;;4991368;28;20449;-83
2023/06/20 08:46:57;;;;;;;12.97;11.67;;;;;;;;;;4975919;28;20441;-83
2023/06/20 08:49:27;;;;;;;12.43;11.63;;;;;;;;;;4990731;28;20876;-83
2023/06/20 08:51:58;;;;;;;12.00;11.10;;;;;;;;;;4994408;28;20432;-85
2023/06/20 08:54:29;;;;;;;12.33;11.23;;;;;;;;;;5003668;28;20442;-84
2023/06/20 08:57:00;;;;;;;11.67;10.97;;;;;;;;;;4986663;28;20651;-82
2023/06/20 08:59:27;;;;;;;12.73;11.53;;;;;;;;;;4990237;28;20539;-86
2023/06/20 09:01:54;;;;;;;12.53;11.63;;;;;;;;;;4997119;28;20810;-85
2023/06/20 09:04:22;;;;;;;12.00;10.77;;;;;;;;;;5001409;28;20432;-81
2023/06/20 09:06:50;;;;;;;13.00;12.03;;;;;;;;;;4994852;28;20441;-84
2023/06/20 09:09:18;;;;;;;12.07;11.10;;;;;;;;;;4988007;28;20769;-80
2023/06/20 09:11:52;;;;;;;12.23;11.33;;;;;;;;;;4986807;28;20455;-87
2023/06/20 09:14:19;;;;;;;12.97;12.07;;;;;;;;;;4982061;28;20437;-87
2023/06/20 09:16:48;;;;;;;12.33;11.33;;;;;;;;;;4986469;28;20779;-87
2023/06/20 09:19:15;;;;;;;12.27;11.57;;;;;;;;;;4995286;28;20491;-83
2023/06/20 09:21:43;;;;;;;11.73;10.93;;;;;;;;;;4988020;28;20455;-84
2023/06/20 09:24:10;;;;;;;12.67;11.77;;;;;;;;;;5005298;28;20499;-85
2023/06/20 09:26:37;;;;;;;11.90;11.03;;;;;;;;;;5059182;23;20499;-80
2023/06/20 09:29:14;;;;;;;12.33;11.60;;;;;;;;;;5028428;28;20453;-86
2023/06/20 09:31:42;;;;;;;11.73;10.80;;;;;;;;;;5021595;28;20527;-83
2023/06/20 09:34:14;;;;;;;12.70;11.00;;;;;;;;;;5025446;28;20447;-86
2023/06/20 09:36:42;;;;;;;11.57;10.77;;;;;;;;;;5016798;28;20457;-82
2023/06/20 09:39:13;;;;;;;15.73;11.43;;;;;;;;;;5010842;28;20474;-86
2023/06/20 09:41:47;;;;;;;13.27;12.23;;;;;;;;;;5006007;28;20448;-84
2023/06/20 09:44:15;;;;;;;12.30;11.37;;;;;;;;;;5019813;28;20438;-89
2023/06/20 09:46:42;;;;;;;12.67;11.50;;;;;;;;;;4996536;28;20443;-87
2023/06/20 09:49:13;;;;;;;12.37;11.57;;;;;;;;;;5010790;28;22106;-83
2023/06/20 09:51:47;;;;;;;12.33;11.33;;;;;;;;;;5020460;28;20431;-82
2023/06/20 09:54:21;;;;;;;13.17;12.07;;;;;;;;;;5021639;28;20445;-86
2023/06/20 09:56:52;;;;;;;13.03;11.67;;;;;;;;;;5012513;28;20438;-82
2023/06/20 09:59:27;;;;;;;12.37;11.37;;;;;;;;;;5009270;28;20545;-85
2023/06/20 10:01:54;;;;;;;13.37;12.27;;;;;;;;;;5008979;28;20529;-86
2023/06/20 10:04:23;;;;;;;12.00;11.10;;;;;;;;;;5021429;28;20439;-86
2023/06/20 10:06:50;;;;;;;12.63;11.63;;;;;;;;;;5016125;28;20522;-80
2023/06/20 10:09:18;;;;;;;11.83;10.90;;;;;;;;;;5012761;28;20486;-85
2023/06/20 10:11:46;;;;;;;12.37;11.27;;;;;;;;;;5021172;28;20454;-84
2023/06/20 10:14:14;;;;;;;12.13;11.23;;;;;;;;;;5016413;28;20462;-82
2023/06/20 10:16:51;;;;;;;12.50;11.40;;;;;;;;;;5028582;28;20445;-85
2023/06/20 10:19:19;;;;;;;11.73;11.03;;;;;;;;;;5021585;28;20470;-82
2023/06/20 10:21:58;;;;;;;12.83;11.83;;;;;;;;;;5013725;28;20836;-83
2023/06/20 10:24:29;;;;;;;12.30;11.30;;;;;;;;;;5012783;28;20610;-87
2023/06/20 10:27:00;;;;;;;12.30;11.40;;;;;;;;;;5012414;28;20521;-87
2023/06/20 10:29:30;;;;;;;12.07;11.27;;;;;;;;;;5275601;22;20904;-81
2023/06/20 10:32:07;;;;;;;12.13;11.23;;;;;;;;;;5015128;28;20474;-84
2023/06/20 10:34:41;;;;;;;12.40;11.50;;;;;;;;;;4997269;28;20449;-87
2023/06/20 10:37:21;;;;;;;12.97;12.00;;;;;;;;;;5002989;28;20483;-89
2023/06/20 10:39:52;;;;;;;12.33;11.33;;;;;;;;;;5021026;28;20976;-80
2023/06/20 10:42:42;;;;;;;11.23;10.33;;;;;;;;;;5011780;28;20410;-82
2023/06/20 10:45:17;;;;;;;12.53;11.53;;;;;;;;;;5009134;28;20437;-85
2023/06/20 10:47:45;;;;;;;10.83;10.13;;;;;;;;;;5009054;28;20431;-88
2023/06/20 10:50:13;;;;;;;10.80;10.00;;;;;;;;;;5017582;28;20906;-84
2023/06/20 10:52:41;;;;;;;10.67;9.97;;;;;;;;;;5007407;28;20460;-89
2023/06/20 10:55:22;;;;;;;12.47;11.57;;;;;;;;;;5011342;28;20443;-87
2023/06/20 10:57:51;;;;;;;11.27;10.57;;;;;;;;;;4990936;28;20427;-82
2023/06/20 11:00:20;;;;;;;10.93;10.03;;;;;;;;;;5034420;28;20470;-83
2023/06/20 11:02:49;;;;;;;12.00;11.10;;;;;;;;;;5025572;28;20475;-85
2023/06/20 11:05:18;;;;;;;12.10;10.93;;;;;;;;;;5018604;28;20458;-82
2023/06/20 11:07:58;;;;;;;11.30;10.57;;;;;;;;;;5012217;28;20481;-86
2023/06/20 11:10:36;;;;;;;11.17;10.37;;;;;;;;;;5020676;28;20470;-86
2023/06/20 11:13:06;;;;;;;11.07;10.20;;;;;;;;;;5006539;28;20458;-83
2023/06/20 11:15:35;;;;;;;11.93;11.03;;;;;;;;;;5013223;28;21160;-84
2023/06/20 11:18:04;;;;;;;12.17;11.00;;;;;;;;;;5014684;28;20451;-86
2023/06/20 11:20:39;;;;;;;10.50;9.70;;;;;;;;;;5006219;28;20494;-81
2023/06/20 11:23:08;;;;;;;11.80;10.73;;;;;;;;;;5010610;28;20443;-82
2023/06/20 11:25:36;;;;;;;11.77;10.70;;;;;;;;;;5016995;28;20474;-84
2023/06/20 11:28:11;;;;;;;11.83;10.93;;;;;;;;;;5011989;28;20469;-88
2023/06/20 11:30:43;;;;;;;12.60;11.70;;;;;;;;;;5071518;22;20494;-86
2023/06/20 11:33:11;;;;;;;12.40;11.40;;;;;;;;;;5002645;28;20432;-85
2023/06/20 11:35:41;;;;;;;10.73;10.03;;;;;;;;;;5010019;28;20432;-86
2023/06/20 11:38:10;;;;;;;11.00;10.20;;;;;;;;;;5005812;28;20647;-86
2023/06/20 11:40:38;;;;;;;12.97;11.87;;;;;;;;;;5008119;28;21105;-83
2023/06/20 11:43:06;;;;;;;10.80;10.00;;;;;;;;;;5004426;28;20455;-86
2023/06/20 11:45:34;;;;;;;10.93;10.10;;;;;;;;;;5009682;28;20451;-83
2023/06/20 11:48:09;;;;;;;10.43;9.50;;;;;;;;;;4993013;28;20450;-86
2023/06/20 11:50:43;;;;;;;10.93;9.93;;;;;;;;;;5010630;28;20443;-83
2023/06/20 11:53:18;;;;;;;11.97;10.87;;;;;;;;;;5014019;28;20826;-88
2023/06/20 11:55:46;;;;;;;10.83;9.93;;;;;;;;;;5016432;28;20442;-84
2023/06/20 11:58:14;;;;;;;11.53;9.27;;;;;;;;;;5018402;28;20485;-84
2023/06/20 12:00:45;;;;;;;10.47;9.67;;;;;;;;;;5016614;28;20678;-83
2023/06/20 12:03:21;;;;;;;9.73;8.93;;;;;;;;;;5009097;28;20498;-85
2023/06/20 12:05:48;;;;;;;10.67;9.80;;;;;;;;;;5012972;28;20430;-88
2023/06/20 12:08:15;;;;;;;10.73;9.83;;;;;;;;;;5001455;28;20454;-84
2023/06/20 12:11:02;;;;;;;10.37;9.40;;;;;;;;;;5112613;22;20683;-83
2023/06/20 12:13:32;;;;;;;10.73;9.83;;;;;;;;;;5001866;28;20534;-82
2023/06/20 12:15:59;;;;;;;11.33;10.43;;;;;;;;;;5007631;28;20444;-87
2023/06/20 12:18:27;;;;;;;10.53;9.67;;;;;;;;;;5017355;28;20517;-86
2023/06/20 12:20:54;;;;;;;10.60;9.80;;;;;;;;;;5007357;28;20541;-87
2023/06/20 12:23:25;;;;;;;10.67;9.57;;;;;;;;;;5019057;28;20783;-87
2023/06/20 12:25:53;;;;;;;15.43;9.43;;;;;;;;;;5015143;28;20434;-88
2023/06/20 12:28:23;;;;;;;11.53;10.17;;;;;;;;;;4985553;28;20474;-87
2023/06/20 12:30:51;;;;;;;9.13;8.53;;;;;;;;;;4994402;28;20605;-87
2023/06/20 12:33:20;;;;;;;10.27;9.57;;;;;;;;;;5023270;28;20439;-88
2023/06/20 12:35:49;;;;;;;10.17;9.47;;;;;;;;;;5005741;28;20542;-88
2023/06/20 12:38:17;;;;;;;9.50;8.80;;;;;;;;;;5022640;28;20434;-84
2023/06/20 12:40:44;;;;;;;10.43;9.27;;;;;;;;;;5021136;28;20534;-87
2023/06/20 12:43:15;;;;;;;9.33;8.50;;;;;;;;;;5013867;28;20738;-88
2023/06/20 12:45:46;;;;;;;10.43;9.53;;;;;;;;;;4984464;28;20451;-84
2023/06/20 12:48:15;;;;;;;9.87;9.07;;;;;;;;;;5022271;28;20435;-87
2023/06/20 12:50:44;;;;;;;9.83;9.03;;;;;;;;;;5014725;28;20771;-85
2023/06/20 12:53:11;;;;;;;9.40;8.67;;;;;;;;;;5000594;28;20442;-86
2023/06/20 12:55:39;;;;;;;8.77;8.17;;;;;;;;;;5058335;23;20514;-86
2023/06/20 12:58:06;;;;;;;12.30;9.23;;;;;;;;;;5021944;28;20545;-84
2023/06/20 13:00:37;;;;;;;8.83;8.27;;;;;;;;;;5018135;28;20483;-85
2023/06/20 13:03:05;;;;;;;9.30;8.63;;;;;;;;;;5014704;28;20854;-84
2023/06/20 13:05:33;;;;;;;9.23;8.53;;;;;;;;;;5009642;28;20780;-86
2023/06/20 13:08:02;;;;;;;9.93;9.13;;;;;;;;;;4994325;28;20435;-84
2023/06/20 13:10:30;;;;;;;11.13;10.23;;;;;;;;;;5014470;28;20446;-83
2023/06/20 13:12:58;;;;;;;9.70;9.03;;;;;;;;;;5018867;28;20546;-88
2023/06/20 13:15:29;;;;;;;10.60;9.60;;;;;;;;;;5013150;28;20486;-88
2023/06/20 13:17:58;;;;;;;9.47;8.67;;;;;;;;;;5003518;28;20436;-89
2023/06/20 13:20:28;;;;;;;9.80;9.10;;;;;;;;;;5014799;28;20478;-87
2023/06/20 13:22:56;;;;;;;9.80;9.13;;;;;;;;;;5019257;28;20451;-86
2023/06/20 13:27:55;;;;;;;9.80;9.10;;;;;;;;;;5013070;28;20489;-85
2023/06/20 13:30:23;;;;;;;10.07;9.37;;;;;;;;;;5005978;28;20507;-84
2023/06/20 13:32:53;;;;;;;9.83;9.13;;;;;;;;;;5004303;28;20440;-87
2023/06/20 13:35:28;;;;;;;9.50;8.73;;;;;;;;;;5004853;28;20439;-85
2023/06/20 13:37:56;;;;;;;10.57;9.93;;;;;;;;;;4986542;28;20835;-84
2023/06/20 13:40:30;;;;;;;9.37;8.67;;;;;;;;;;5003421;28;20483;-81
2023/06/20 13:43:02;;;;;;;10.27;9.40;;;;;;;;;;5036400;22;20495;-87
2023/06/20 13:45:30;;;;;;;10.63;9.83;;;;;;;;;;5014815;28;20586;-87
2023/06/20 13:48:00;;;;;;;10.27;9.60;;;;;;;;;;4999894;28;20505;-87
2023/06/20 13:50:29;;;;;;;11.17;10.47;;;;;;;;;;5020900;28;20497;-83
2023/06/20 13:52:56;;;;;;;10.20;9.50;;;;;;;;;;5020032;28;20455;-86
2023/06/20 13:55:27;;;;;;;10.37;9.57;;;;;;;;;;5014279;28;20443;-86
2023/06/20 13:57:55;;;;;;;10.50;9.67;;;;;;;;;;5021855;28;20568;-87
2023/06/20 14:00:25;;;;;;;11.10;10.30;;;;;;;;;;4998831;28;20495;-86
2023/06/20 14:02:53;;;;;;;11.40;10.60;;;;;;;;;;5012948;28;20468;-88
2023/06/20 14:05:21;;;;;;;10.73;9.93;;;;;;;;;;5013682;28;20537;-88
2023/06/20 14:07:50;;;;;;;11.27;10.37;;;;;;;;;;5009176;28;20453;-84
2023/06/20 14:10:17;;;;;;;11.27;10.57;;;;;;;;;;5019126;28;20565;-82
2023/06/20 14:12:49;;;;;;;10.10;9.30;;;;;;;;;;5019986;28;20466;-84
2023/06/20 14:15:17;;;;;;;11.20;10.10;;;;;;;;;;4999667;28;20714;-86
2023/06/20 14:17:46;;;;;;;10.90;10.10;;;;;;;;;;5013913;28;20443;-87
2023/06/20 14:20:13;;;;;;;10.77;9.97;;;;;;;;;;4993798;28;20582;-86
2023/06/20 14:22:41;;;;;;;11.43;10.40;;;;;;;;;;5020266;28;20438;-85
2023/06/20 14:25:10;;;;;;;10.60;9.90;;;;;;;;;;5013585;28;20451;-83
2023/06/20 14:27:40;;;;;;;10.53;9.73;;;;;;;;;;5025837;28;20501;-87
2023/06/20 14:30:08;;;;;;;11.37;10.40;;;;;;;;;;5030598;28;20494;-88
2023/06/20 14:32:35;;;;;;;12.13;9.10;;;;;;;;;;5027736;28;20439;-82
2023/06/20 14:35:03;;;;;;;10.73;9.60;;;;;;;;;;5025982;28;20451;-84